Terminal Aerodrome Forecast
Issued by NWS

Home | Current Version | Previous Version | Text Only | Print | Product List | Glossary Off
Versions: 1 2 3 4 5 6 7 8 9 10 11 12

245
FTUS43 KBIS 041740
TAFJMS
TAF
KJMS 041740Z 0418/0518 32012KT P6SM OVC025
     FM042100 28006KT P6SM SCT025 SCT250
     FM051000 17009KT P6SM VCSH OVC040
     FM051200 18007KT 3SM -SN BR OVC015
     FM051400 27005KT 1SM -SN BR OVC010
     FM051700 31008KT P6SM OVC015=

USA.gov is the U.S. government's official web portal to all federal, state and local government web resources and services.